Time;durP1;ratioP1;P1;durP2;ratioP2;P2;SDS_P1;SDS_P2;PMS_P1;PMS_P2;Temp;Humidity;BMP_temperature;BMP_pressure;BME280_temperature;BME280_humidity;BME280_pressure;Samples;Min_cycle;Max_cycle;Signal;HPM_P1;HPM_P2
2023/06/25 00:02:00;;;;;;;;;;;;;;;;;;4999568;28;20013;-69
2023/06/25 00:04:27;;;;;;;;;;;;;;;;;;5001618;28;20016;-69
2023/06/25 00:06:54;;;;;;;;;;;;;;;;;;4997067;28;19933;-69
2023/06/25 00:09:21;;;;;;;;;;;;;;;;;;4995341;28;19926;-69
2023/06/25 00:11:48;;;;;;;;;;;;;;;;;;5002428;28;20069;-69
2023/06/25 00:14:15;;;;;;;;;;;;;;;;;;4994995;28;19932;-69
2023/06/25 00:16:42;;;;;;;;;;;;;;;;;;4993159;28;20020;-69
2023/06/25 00:19:09;;;;;;;;;;;;;;;;;;4999768;28;20027;-69
2023/06/25 00:21:37;;;;;;;;;;;;;;;;;;5001264;28;19965;-69
2023/06/25 00:24:04;;;;;;;;;;;;;;;;;;5003183;28;19926;-69
2023/06/25 00:26:31;;;;;;;;;;;;;;;;;;4996785;28;20016;-69
2023/06/25 00:28:58;;;;;;;;;;;;;;;;;;5004512;28;20412;-69
2023/06/25 00:31:25;;;;;;;;;;;;;;;;;;4999094;28;20352;-69
2023/06/25 00:33:52;;;;;;;;;;;;;;;;;;4998528;28;19971;-69
2023/06/25 00:36:19;;;;;;;;;;;;;;;;;;5004546;28;20393;-69
2023/06/25 00:38:47;;;;;;;;;;;;;;;;;;5003335;28;19997;-70
2023/06/25 00:41:14;;;;;;;;;;;;;;;;;;4995493;28;19944;-69
2023/06/25 00:43:42;;;;;;;;;;;;;;;;;;4999928;28;20431;-69
2023/06/25 00:46:12;;;;;;;;;;;;;;;;;;4997058;28;19925;-69
2023/06/25 00:48:39;;;;;;;;;;;;;;;;;;4999163;28;19933;-70
2023/06/25 00:51:06;;;;;;;;;;;;;;;;;;4995856;28;20029;-70
2023/06/25 00:53:34;;;;;;;;;;;;;;;;;;5007882;28;20495;-69
2023/06/25 00:56:01;;;;;;;;;;;;;;;;;;5000651;28;19926;-69
2023/06/25 00:58:28;;;;;;;;;;;;;;;;;;5002293;28;19971;-69
2023/06/25 01:00:55;;;;;;;;;;;;;;;;;;4998703;28;20456;-70
2023/06/25 01:03:26;;;;;;;;;;;;;;;;;;5000039;28;20404;-69
2023/06/25 01:05:53;;;;;;;;;;;;;;;;;;4991462;28;19929;-69
2023/06/25 01:08:20;;;;;;;;;;;;;;;;;;4998186;28;19933;-69
2023/06/25 01:10:47;;;;;;;;;;;;;;;;;;5000537;28;20016;-69
2023/06/25 01:13:14;;;;;;;;;;;;;;;;;;5002285;28;20032;-70
2023/06/25 01:15:41;;;;;;;;;;;;;;;;;;5006021;28;20016;-70
2023/06/25 01:18:09;;;;;;;;;;;;;;;;;;4998079;28;19929;-70
2023/06/25 01:20:38;;;;;;;;;;;;;;;;;;4997270;28;19926;-71
2023/06/25 01:23:05;;;;;;;;;;;;;;;;;;5002377;28;19926;-70
2023/06/25 01:25:32;;;;;;;;;;;;;;;;;;5000705;28;19932;-70
2023/06/25 01:27:59;;;;;;;;;;;;;;;;;;5000990;28;19934;-71
2023/06/25 01:30:27;;;;;;;;;;;;;;;;;;4997687;28;20468;-70
2023/06/25 01:32:54;;;;;;;;;;;;;;;;;;4998383;28;19929;-71
2023/06/25 01:35:21;;;;;;;;;;;;;;;;;;5003495;28;20015;-71
2023/06/25 01:37:48;;;;;;;;;;;;;;;;;;5006203;28;20100;-71
2023/06/25 01:40:16;;;;;;;;;;;;;;;;;;5004051;28;20008;-71
2023/06/25 01:42:43;;;;;;;;;;;;;;;;;;5009989;28;19942;-71
2023/06/25 01:45:11;;;;;;;;;;;;;;;;;;5005832;28;20008;-71
2023/06/25 01:47:38;;;;;;;;;;;;;;;;;;5006132;28;19925;-71
2023/06/25 01:50:05;;;;;;;;;;;;;;;;;;5005374;28;19925;-71
2023/06/25 01:52:32;;;;;;;;;;;;;;;;;;5009885;28;20079;-71
2023/06/25 01:54:59;;;;;;;;;;;;;;;;;;5009024;28;19938;-71
2023/06/25 01:57:26;;;;;;;;;;;;;;;;;;4997258;28;19972;-71
2023/06/25 01:59:53;;;;;;;;;;;;;;;;;;5000943;28;20381;-71
2023/06/25 02:02:20;;;;;;;;;;;;;;;;;;5006176;28;20417;-71
2023/06/25 02:04:47;;;;;;;;;;;;;;;;;;5012349;28;20028;-71
2023/06/25 02:07:14;;;;;;;;;;;;;;;;;;5009635;28;19984;-71
2023/06/25 02:09:41;;;;;;;;;;;;;;;;;;4996399;28;20021;-71
2023/06/25 02:12:08;;;;;;;;;;;;;;;;;;4998655;28;19951;-71
2023/06/25 02:14:35;;;;;;;;;;;;;;;;;;5010569;28;20049;-71
2023/06/25 02:17:02;;;;;;;;;;;;;;;;;;4999560;28;19925;-71
2023/06/25 02:19:29;;;;;;;;;;;;;;;;;;4997174;28;19933;-71
2023/06/25 02:21:56;;;;;;;;;;;;;;;;;;4997532;28;20016;-71
2023/06/25 02:24:23;;;;;;;;;;;;;;;;;;5005307;28;20004;-71
2023/06/25 02:26:50;;;;;;;;;;;;;;;;;;5008940;28;19933;-71
2023/06/25 02:29:17;;;;;;;;;;;;;;;;;;5007594;28;20024;-71
2023/06/25 02:31:44;;;;;;;;;;;;;;;;;;5002773;28;20020;-71
2023/06/25 02:34:11;;;;;;;;;;;;;;;;;;5000282;28;20405;-70
2023/06/25 02:36:38;;;;;;;;;;;;;;;;;;4996745;28;19957;-71
2023/06/25 02:39:05;;;;;;;;;;;;;;;;;;4997244;28;19926;-72
2023/06/25 02:41:32;;;;;;;;;;;;;;;;;;4998814;28;20016;-71
2023/06/25 02:43:59;;;;;;;;;;;;;;;;;;4997450;28;20401;-71
2023/06/25 02:46:26;;;;;;;;;;;;;;;;;;4998962;28;20381;-71
2023/06/25 02:48:53;;;;;;;;;;;;;;;;;;4995653;28;20020;-71
2023/06/25 02:51:20;;;;;;;;;;;;;;;;;;5001863;28;19956;-71
2023/06/25 02:53:47;;;;;;;;;;;;;;;;;;4999643;28;20457;-71
2023/06/25 02:56:14;;;;;;;;;;;;;;;;;;5007025;28;19965;-71
2023/06/25 02:58:41;;;;;;;;;;;;;;;;;;5003705;28;20007;-71
2023/06/25 03:01:08;;;;;;;;;;;;;;;;;;4999719;28;19932;-70
2023/06/25 03:03:35;;;;;;;;;;;;;;;;;;5004255;28;19987;-70
2023/06/25 03:06:02;;;;;;;;;;;;;;;;;;4999997;28;20008;-70
2023/06/25 03:08:29;;;;;;;;;;;;;;;;;;4996609;28;20005;-70
2023/06/25 03:10:56;;;;;;;;;;;;;;;;;;5004880;28;20028;-70
2023/06/25 03:13:23;;;;;;;;;;;;;;;;;;4994623;28;19940;-71
2023/06/25 03:15:50;;;;;;;;;;;;;;;;;;4993810;28;20012;-70
2023/06/25 03:18:17;;;;;;;;;;;;;;;;;;4997144;28;20024;-70
2023/06/25 03:20:43;;;;;;;;;;;;;;;;;;5001684;28;20541;-70
2023/06/25 03:23:10;;;;;;;;;;;;;;;;;;4996371;28;19933;-69
2023/06/25 03:25:37;;;;;;;;;;;;;;;;;;4999604;28;20024;-69
2023/06/25 03:28:04;;;;;;;;;;;;;;;;;;5001347;28;20020;-69
2023/06/25 03:30:31;;;;;;;;;;;;;;;;;;5002176;28;19989;-69
2023/06/25 03:32:58;;;;;;;;;;;;;;;;;;4998823;28;20455;-71
2023/06/25 03:35:25;;;;;;;;;;;;;;;;;;5000190;28;20304;-70
2023/06/25 03:37:52;;;;;;;;;;;;;;;;;;4998054;28;19964;-70
2023/06/25 03:40:19;;;;;;;;;;;;;;;;;;4998063;28;19989;-70
2023/06/25 03:42:46;;;;;;;;;;;;;;;;;;4994413;28;20008;-70
2023/06/25 03:45:15;;;;;;;;;;;;;;;;;;4998601;28;19926;-71
2023/06/25 03:47:42;;;;;;;;;;;;;;;;;;4997367;28;20021;-70
2023/06/25 03:50:09;;;;;;;;;;;;;;;;;;4996310;28;19930;-70
2023/06/25 03:52:36;;;;;;;;;;;;;;;;;;4993605;28;20036;-70
2023/06/25 03:55:03;;;;;;;;;;;;;;;;;;5001643;28;19926;-70
2023/06/25 03:57:30;;;;;;;;;;;;;;;;;;5003931;28;19926;-70
2023/06/25 03:59:57;;;;;;;;;;;;;;;;;;5002943;28;19926;-71
2023/06/25 04:02:24;;;;;;;;;;;;;;;;;;5002787;28;19993;-70
2023/06/25 04:04:51;;;;;;;;;;;;;;;;;;5002659;28;19925;-70
2023/06/25 04:07:18;;;;;;;;;;;;;;;;;;4993978;28;19927;-70
2023/06/25 04:09:45;;;;;;;;;;;;;;;;;;4999837;28;20032;-70
2023/06/25 04:12:12;;;;;;;;;;;;;;;;;;5001732;28;20012;-70
2023/06/25 04:14:39;;;;;;;;;;;;;;;;;;5012720;28;19976;-70
2023/06/25 04:17:06;;;;;;;;;;;;;;;;;;4999190;28;20012;-71
2023/06/25 04:19:33;;;;;;;;;;;;;;;;;;5005279;28;20012;-71
2023/06/25 04:22:00;;;;;;;;;;;;;;;;;;5003816;28;20417;-71
2023/06/25 04:24:27;;;;;;;;;;;;;;;;;;4995905;28;20359;-71
2023/06/25 04:26:54;;;;;;;;;;;;;;;;;;5002506;28;20373;-70
2023/06/25 04:29:21;;;;;;;;;;;;;;;;;;5005335;28;20401;-71
2023/06/25 04:31:47;;;;;;;;;;;;;;;;;;4992507;28;22074;-71
2023/06/25 04:34:14;;;;;;;;;;;;;;;;;;4992838;28;20441;-71
2023/06/25 04:36:41;;;;;;;;;;;;;;;;;;5003446;28;19972;-71
2023/06/25 04:39:08;;;;;;;;;;;;;;;;;;5004419;28;20016;-71
2023/06/25 04:41:35;;;;;;;;;;;;;;;;;;5003904;28;20024;-71
2023/06/25 04:44:02;;;;;;;;;;;;;;;;;;5003631;28;20036;-71
2023/06/25 04:46:29;;;;;;;;;;;;;;;;;;5006851;28;19931;-71
2023/06/25 04:48:56;;;;;;;;;;;;;;;;;;4995233;28;19934;-71
2023/06/25 04:51:23;;;;;;;;;;;;;;;;;;4998252;28;19930;-70
2023/06/25 04:53:50;;;;;;;;;;;;;;;;;;5001791;28;20024;-70
2023/06/25 04:56:17;;;;;;;;;;;;;;;;;;4993094;28;19933;-73
2023/06/25 04:58:44;;;;;;;;;;;;;;;;;;4996620;28;20308;-71
2023/06/25 05:01:11;;;;;;;;;;;;;;;;;;5005781;28;19967;-71
2023/06/25 05:03:38;;;;;;;;;;;;;;;;;;4999172;28;19930;-71
2023/06/25 05:06:05;;;;;;;;;;;;;;;;;;4998540;28;19937;-71
2023/06/25 05:08:32;;;;;;;;;;;;;;;;;;5001311;28;20012;-71
2023/06/25 05:10:59;;;;;;;;;;;;;;;;;;5006641;28;20017;-71
2023/06/25 05:13:26;;;;;;;;;;;;;;;;;;5011727;28;20385;-72
2023/06/25 05:15:53;;;;;;;;;;;;;;;;;;5003281;28;20076;-72
2023/06/25 05:18:20;;;;;;;;;;;;;;;;;;5011302;28;20020;-72
2023/06/25 05:20:47;;;;;;;;;;;;;;;;;;5006911;28;20015;-70
2023/06/25 05:23:14;;;;;;;;;;;;;;;;;;5005809;28;20417;-71
2023/06/25 05:25:41;;;;;;;;;;;;;;;;;;5004737;28;20020;-70
2023/06/25 05:28:08;;;;;;;;;;;;;;;;;;5001127;28;19957;-70
2023/06/25 05:30:36;;;;;;;;;;;;;;;;;;5000841;28;19968;-70
2023/06/25 05:33:03;;;;;;;;;;;;;;;;;;5000387;28;19961;-70
2023/06/25 05:35:30;;;;;;;;;;;;;;;;;;4997406;28;19925;-70
2023/06/25 05:37:57;;;;;;;;;;;;;;;;;;5012659;28;19926;-70
2023/06/25 05:40:24;;;;;;;;;;;;;;;;;;5001282;28;20444;-70
2023/06/25 05:42:51;;;;;;;;;;;;;;;;;;5001662;28;20292;-70
2023/06/25 05:45:18;;;;;;;;;;;;;;;;;;4999873;28;19929;-70
2023/06/25 05:47:45;;;;;;;;;;;;;;;;;;5006787;28;20012;-70
2023/06/25 05:50:12;;;;;;;;;;;;;;;;;;4999845;28;20440;-69
2023/06/25 05:52:39;;;;;;;;;;;;;;;;;;5002723;28;19971;-69
2023/06/25 05:55:06;;;;;;;;;;;;;;;;;;4999637;28;19925;-69
2023/06/25 05:57:32;;;;;;;;;;;;;;;;;;5004732;28;19926;-69
2023/06/25 05:59:59;;;;;;;;;;;;;;;;;;4999060;28;19932;-69
2023/06/25 06:02:26;;;;;;;;;;;;;;;;;;4999264;28;20016;-70
2023/06/25 06:04:54;;;;;;;;;;;;;;;;;;4998475;28;19926;-69
2023/06/25 06:07:21;;;;;;;;;;;;;;;;;;5005110;28;19925;-70
2023/06/25 06:09:48;;;;;;;;;;;;;;;;;;5003430;28;20012;-70
2023/06/25 06:12:15;;;;;;;;;;;;;;;;;;4998265;28;20021;-70
2023/06/25 06:14:42;;;;;;;;;;;;;;;;;;5010331;28;19925;-70
2023/06/25 06:17:09;;;;;;;;;;;;;;;;;;5001354;28;20044;-70
2023/06/25 06:19:36;;;;;;;;;;;;;;;;;;4999904;28;19926;-70
2023/06/25 06:22:03;;;;;;;;;;;;;;;;;;4999337;28;19979;-71
2023/06/25 06:24:30;;;;;;;;;;;;;;;;;;4996820;28;19926;-71
2023/06/25 06:26:57;;;;;;;;;;;;;;;;;;4996555;28;19930;-70
2023/06/25 06:29:24;;;;;;;;;;;;;;;;;;5005397;28;19973;-70
2023/06/25 06:31:51;;;;;;;;;;;;;;;;;;4997166;28;20020;-71
2023/06/25 06:34:18;;;;;;;;;;;;;;;;;;4995140;28;20347;-70
2023/06/25 06:36:45;;;;;;;;;;;;;;;;;;4997201;28;19933;-70
2023/06/25 06:39:12;;;;;;;;;;;;;;;;;;5000526;28;19926;-70
2023/06/25 06:41:39;;;;;;;;;;;;;;;;;;4996276;28;19935;-70
2023/06/25 06:44:06;;;;;;;;;;;;;;;;;;5000648;28;19925;-71
2023/06/25 06:46:33;;;;;;;;;;;;;;;;;;5008572;28;19943;-70
2023/06/25 06:49:00;;;;;;;;;;;;;;;;;;5006459;28;20024;-70
2023/06/25 06:51:27;;;;;;;;;;;;;;;;;;4997843;28;20436;-70
2023/06/25 06:53:54;;;;;;;;;;;;;;;;;;5009816;28;20499;-70
2023/06/25 06:56:21;;;;;;;;;;;;;;;;;;4998687;28;20014;-70
2023/06/25 06:58:48;;;;;;;;;;;;;;;;;;5007044;28;19926;-70
2023/06/25 07:01:15;;;;;;;;;;;;;;;;;;4995330;28;19932;-70
2023/06/25 07:03:42;;;;;;;;;;;;;;;;;;5007659;28;20004;-70
2023/06/25 07:06:09;;;;;;;;;;;;;;;;;;5005961;28;20016;-70
2023/06/25 07:08:36;;;;;;;;;;;;;;;;;;5006015;28;19926;-74
2023/06/25 07:11:03;;;;;;;;;;;;;;;;;;5007899;28;19926;-73
2023/06/25 07:13:30;;;;;;;;;;;;;;;;;;5001515;28;19953;-74
2023/06/25 07:15:57;;;;;;;;;;;;;;;;;;4996476;28;19925;-74
2023/06/25 07:18:24;;;;;;;;;;;;;;;;;;4993329;28;20433;-74
2023/06/25 07:20:51;;;;;;;;;;;;;;;;;;5007864;28;19968;-74
2023/06/25 07:23:18;;;;;;;;;;;;;;;;;;5003675;28;19926;-74
2023/06/25 07:25:45;;;;;;;;;;;;;;;;;;4996158;28;20032;-74
2023/06/25 07:28:12;;;;;;;;;;;;;;;;;;5000108;28;19925;-75
2023/06/25 07:30:39;;;;;;;;;;;;;;;;;;5007712;28;19929;-74
2023/06/25 07:33:06;;;;;;;;;;;;;;;;;;4981461;28;19933;-74
2023/06/25 07:35:33;;;;;;;;;;;;;;;;;;4996853;28;20328;-75
2023/06/25 07:38:00;;;;;;;;;;;;;;;;;;5002859;28;19948;-75
2023/06/25 07:40:27;;;;;;;;;;;;;;;;;;5001758;28;20389;-76
2023/06/25 07:42:54;;;;;;;;;;;;;;;;;;4994523;28;19926;-75
2023/06/25 07:45:21;;;;;;;;;;;;;;;;;;4998158;28;20358;-75
2023/06/25 07:47:48;;;;;;;;;;;;;;;;;;4996277;28;19934;-75
2023/06/25 07:50:15;;;;;;;;;;;;;;;;;;4997235;28;19925;-78
2023/06/25 07:52:42;;;;;;;;;;;;;;;;;;4998967;28;20009;-77
2023/06/25 07:55:09;;;;;;;;;;;;;;;;;;4993373;28;20000;-77
2023/06/25 07:57:36;;;;;;;;;;;;;;;;;;5005782;28;20355;-78
2023/06/25 08:00:03;;;;;;;;;;;;;;;;;;5001227;28;19973;-78
2023/06/25 08:02:31;;;;;;;;;;;;;;;;;;5005071;28;20012;-78
2023/06/25 08:04:58;;;;;;;;;;;;;;;;;;5006102;28;19933;-77
2023/06/25 08:07:25;;;;;;;;;;;;;;;;;;5000601;28;20016;-77
2023/06/25 08:09:52;;;;;;;;;;;;;;;;;;5001731;28;19925;-78
2023/06/25 08:12:19;;;;;;;;;;;;;;;;;;4999954;28;20458;-78
2023/06/25 08:14:46;;;;;;;;;;;;;;;;;;4999455;28;19969;-77
2023/06/25 08:17:13;;;;;;;;;;;;;;;;;;4995962;28;20024;-76
2023/06/25 08:19:40;;;;;;;;;;;;;;;;;;5001107;28;20404;-77
2023/06/25 08:22:07;;;;;;;;;;;;;;;;;;5012682;23;19973;-77
2023/06/25 08:24:34;;;;;;;;;;;;;;;;;;5038131;28;19964;-76
2023/06/25 08:27:01;;;;;;;;;;;;;;;;;;5026994;28;20380;-77
2023/06/25 08:29:29;;;;;;;;;;;;;;;;;;5026225;28;20351;-77
2023/06/25 08:31:56;;;;;;;;;;;;;;;;;;5025265;28;19961;-74
2023/06/25 08:34:23;;;;;;;;;;;;;;;;;;5016048;28;20008;-74
2023/06/25 08:36:50;;;;;;;;;;;;;;;;;;5018674;28;19935;-73
2023/06/25 08:39:17;;;;;;;;;;;;;;;;;;5025583;28;19935;-73
2023/06/25 08:41:44;;;;;;;;;;;;;;;;;;5030347;28;19931;-74
2023/06/25 08:44:11;;;;;;;;;;;;;;;;;;5034213;28;20393;-75
2023/06/25 08:46:38;;;;;;;;;;;;;;;;;;5024082;28;20379;-74
2023/06/25 08:49:05;;;;;;;;;;;;;;;;;;5021453;28;21075;-75
2023/06/25 08:51:32;;;;;;;;;;;;;;;;;;5026557;28;19925;-74
2023/06/25 08:53:59;;;;;;;;;;;;;;;;;;5023215;28;19933;-75
2023/06/25 08:56:26;;;;;;;;;;;;;;;;;;5020654;28;19932;-75
2023/06/25 08:58:53;;;;;;;;;;;;;;;;;;5018456;28;19929;-75
2023/06/25 09:01:20;;;;;;;;;;;;;;;;;;5026895;28;20379;-75
2023/06/25 09:03:47;;;;;;;;;;;;;;;;;;5029230;28;19967;-75
2023/06/25 09:06:15;;;;;;;;;;;;;;;;;;5028408;28;19968;-76
2023/06/25 09:08:42;;;;;;;;;;;;;;;;;;5023470;28;19929;-75
2023/06/25 09:11:09;;;;;;;;;;;;;;;;;;5027873;28;20466;-76
2023/06/25 09:13:36;;;;;;;;;;;;;;;;;;5022072;28;20008;-76
2023/06/25 09:16:03;;;;;;;;;;;;;;;;;;5022371;28;19975;-75
2023/06/25 09:18:30;;;;;;;;;;;;;;;;;;5018505;28;19933;-76
2023/06/25 09:20:57;;;;;;;;;;;;;;;;;;5017949;28;19926;-75
2023/06/25 09:23:24;;;;;;;;;;;;;;;;;;5025293;28;20931;-75
2023/06/25 09:25:51;;;;;;;;;;;;;;;;;;5024747;28;20028;-74
2023/06/25 09:28:18;;;;;;;;;;;;;;;;;;5020060;28;20464;-75
2023/06/25 09:30:46;;;;;;;;;;;;;;;;;;5012362;28;20084;-76
2023/06/25 09:33:13;;;;;;;;;;;;;;;;;;5028446;28;19964;-76
2023/06/25 09:35:41;;;;;;;;;;;;;;;;;;5024876;28;20004;-75
2023/06/25 09:38:08;;;;;;;;;;;;;;;;;;5018064;28;19964;-75
2023/06/25 09:40:35;;;;;;;;;;;;;;;;;;5020968;28;19936;-74
2023/06/25 09:43:06;;;;;;;;;;;;;;;;;;5020889;28;19933;-75
2023/06/25 09:45:36;;;;;;;;;;;;;;;;;;5023368;28;19929;-74
2023/06/25 09:48:04;;;;;;;;;;;;;;;;;;5033206;28;19980;-75
2023/06/25 09:50:32;;;;;;;;;;;;;;;;;;5033868;28;19979;-75
2023/06/25 09:52:59;;;;;;;;;;;;;;;;;;5019195;28;19929;-75
2023/06/25 09:55:26;;;;;;;;;;;;;;;;;;5023679;28;20435;-76
2023/06/25 09:57:53;;;;;;;;;;;;;;;;;;5021147;28;19930;-75
2023/06/25 10:00:20;;;;;;;;;;;;;;;;;;5023769;28;19956;-76
2023/06/25 10:02:47;;;;;;;;;;;;;;;;;;5024037;28;19991;-75
2023/06/25 10:05:14;;;;;;;;;;;;;;;;;;5025092;28;19925;-76
2023/06/25 10:07:41;;;;;;;;;;;;;;;;;;5022563;28;19925;-75
2023/06/25 10:10:08;;;;;;;;;;;;;;;;;;5033256;28;20331;-74
2023/06/25 10:12:35;;;;;;;;;;;;;;;;;;5025914;28;19976;-75
2023/06/25 10:15:02;;;;;;;;;;;;;;;;;;5026295;28;19940;-75
2023/06/25 10:17:29;;;;;;;;;;;;;;;;;;5028625;28;19931;-76
2023/06/25 10:19:56;;;;;;;;;;;;;;;;;;5022330;28;20333;-75
2023/06/25 10:22:23;;;;;;;;;;;;;;;;;;5026081;28;19988;-75
2023/06/25 10:24:50;;;;;;;;;;;;;;;;;;5036211;28;19929;-77
2023/06/25 10:27:17;;;;;;;;;;;;;;;;;;5031371;28;19983;-75
2023/06/25 10:29:44;;;;;;;;;;;;;;;;;;5029414;28;20000;-76
2023/06/25 10:32:12;;;;;;;;;;;;;;;;;;5027894;28;19925;-75
2023/06/25 10:34:39;;;;;;;;;;;;;;;;;;5023818;28;19932;-74
2023/06/25 10:37:06;;;;;;;;;;;;;;;;;;5031247;28;20331;-75
2023/06/25 10:39:34;;;;;;;;;;;;;;;;;;5042062;28;19929;-75
2023/06/25 10:42:03;;;;;;;;;;;;;;;;;;5026355;28;19932;-75
2023/06/25 10:44:31;;;;;;;;;;;;;;;;;;5025368;28;19933;-74
2023/06/25 10:46:58;;;;;;;;;;;;;;;;;;5025077;28;21877;-74
2023/06/25 10:49:25;;;;;;;;;;;;;;;;;;5024866;28;19952;-77
2023/06/25 10:51:52;;;;;;;;;;;;;;;;;;5028227;28;19933;-78
2023/06/25 10:54:19;;;;;;;;;;;;;;;;;;5024463;28;19932;-80
2023/06/25 10:56:46;;;;;;;;;;;;;;;;;;5025674;28;19925;-77
2023/06/25 10:59:13;;;;;;;;;;;;;;;;;;5024144;28;19925;-74
2023/06/25 11:01:40;;;;;;;;;;;;;;;;;;5024703;28;20008;-75
2023/06/25 11:04:07;;;;;;;;;;;;;;;;;;5024614;28;19972;-79
2023/06/25 11:06:34;;;;;;;;;;;;;;;;;;5028964;28;20038;-78
2023/06/25 11:09:01;;;;;;;;;;;;;;;;;;5031254;28;20008;-75
2023/06/25 11:11:28;;;;;;;;;;;;;;;;;;5023886;28;20012;-76
2023/06/25 11:13:55;;;;;;;;;;;;;;;;;;5025621;28;19972;-76
2023/06/25 11:16:22;;;;;;;;;;;;;;;;;;5030091;28;19925;-76
2023/06/25 11:18:50;;;;;;;;;;;;;;;;;;5030192;28;20013;-76
2023/06/25 11:21:17;;;;;;;;;;;;;;;;;;5024209;28;19991;-76
2023/06/25 11:23:44;;;;;;;;;;;;;;;;;;5029986;28;20009;-77
2023/06/25 11:26:12;;;;;;;;;;;;;;;;;;5028009;28;19929;-77
2023/06/25 11:28:39;;;;;;;;;;;;;;;;;;5027859;28;19925;-77
2023/06/25 11:31:06;;;;;;;;;;;;;;;;;;5029063;28;20404;-76
2023/06/25 11:33:33;;;;;;;;;;;;;;;;;;5031791;28;20299;-77
2023/06/25 11:36:00;;;;;;;;;;;;;;;;;;5032173;28;20016;-78
2023/06/25 11:38:27;;;;;;;;;;;;;;;;;;5030423;28;19996;-77
2023/06/25 11:40:54;;;;;;;;;;;;;;;;;;5024471;28;19976;-77
2023/06/25 11:43:21;;;;;;;;;;;;;;;;;;5031371;28;20023;-76
2023/06/25 11:45:48;;;;;;;;;;;;;;;;;;5030219;28;19933;-76
2023/06/25 11:48:15;;;;;;;;;;;;;;;;;;5021345;28;20020;-77
2023/06/25 11:50:42;;;;;;;;;;;;;;;;;;5023918;28;20057;-77
2023/06/25 11:53:09;;;;;;;;;;;;;;;;;;5025031;28;19925;-77
2023/06/25 11:55:36;;;;;;;;;;;;;;;;;;5022557;28;19979;-77
2023/06/25 11:58:03;;;;;;;;;;;;;;;;;;5022159;28;19953;-76
2023/06/25 12:00:30;;;;;;;;;;;;;;;;;;5021559;28;19925;-77
2023/06/25 12:02:57;;;;;;;;;;;;;;;;;;5030969;28;20024;-78
2023/06/25 12:05:24;;;;;;;;;;;;;;;;;;5023365;28;20028;-77
2023/06/25 12:07:51;;;;;;;;;;;;;;;;;;5016286;28;19984;-77
2023/06/25 12:10:18;;;;;;;;;;;;;;;;;;5028087;28;20028;-76
2023/06/25 12:12:45;;;;;;;;;;;;;;;;;;5019643;28;19925;-78
2023/06/25 12:15:12;;;;;;;;;;;;;;;;;;5018545;28;20037;-76
2023/06/25 12:17:39;;;;;;;;;;;;;;;;;;5026240;28;20020;-76
2023/06/25 12:20:06;;;;;;;;;;;;;;;;;;5030596;28;20285;-76
2023/06/25 12:22:33;;;;;;;;;;;;;;;;;;5021183;28;19957;-76
2023/06/25 12:25:00;;;;;;;;;;;;;;;;;;5017471;28;20003;-76
2023/06/25 12:27:27;;;;;;;;;;;;;;;;;;5027540;28;20003;-77
2023/06/25 12:29:54;;;;;;;;;;;;;;;;;;5026629;28;19971;-77
2023/06/25 12:32:21;;;;;;;;;;;;;;;;;;5032674;28;20020;-75
2023/06/25 12:34:48;;;;;;;;;;;;;;;;;;5020378;28;19925;-76
2023/06/25 12:37:16;;;;;;;;;;;;;;;;;;5024737;28;20011;-75
2023/06/25 12:39:43;;;;;;;;;;;;;;;;;;5025390;28;19932;-75
2023/06/25 12:42:10;;;;;;;;;;;;;;;;;;5021021;28;20011;-75
2023/06/25 12:44:37;;;;;;;;;;;;;;;;;;5021838;28;20017;-75
2023/06/25 12:47:04;;;;;;;;;;;;;;;;;;5028967;28;20020;-75
2023/06/25 12:49:31;;;;;;;;;;;;;;;;;;5029226;28;19961;-75
2023/06/25 12:51:58;;;;;;;;;;;;;;;;;;5028360;28;19964;-74
2023/06/25 12:54:25;;;;;;;;;;;;;;;;;;5027951;28;20012;-76
2023/06/25 12:56:52;;;;;;;;;;;;;;;;;;5031311;28;19932;-76
2023/06/25 12:59:19;;;;;;;;;;;;;;;;;;5026517;28;20381;-74
2023/06/25 13:01:46;;;;;;;;;;;;;;;;;;5023406;28;19929;-73
2023/06/25 13:04:13;;;;;;;;;;;;;;;;;;5027968;28;19929;-73
2023/06/25 13:06:40;;;;;;;;;;;;;;;;;;5027943;28;19925;-72
2023/06/25 13:09:07;;;;;;;;;;;;;;;;;;5027260;28;20466;-73
2023/06/25 13:11:34;;;;;;;;;;;;;;;;;;5030819;28;19980;-73
2023/06/25 13:14:01;;;;;;;;;;;;;;;;;;5022625;28;19925;-73
2023/06/25 13:16:28;;;;;;;;;;;;;;;;;;5025774;28;19935;-74
2023/06/25 13:18:55;;;;;;;;;;;;;;;;;;5028850;28;20032;-73
2023/06/25 13:21:22;;;;;;;;;;;;;;;;;;5029197;28;19943;-73
2023/06/25 13:23:49;;;;;;;;;;;;;;;;;;5038209;28;20479;-74
2023/06/25 13:26:16;;;;;;;;;;;;;;;;;;5017754;28;20014;-74
2023/06/25 13:28:43;;;;;;;;;;;;;;;;;;5033437;28;20008;-74
2023/06/25 13:31:10;;;;;;;;;;;;;;;;;;5027063;28;19925;-77
2023/06/25 13:33:37;;;;;;;;;;;;;;;;;;5028173;28;19929;-74
2023/06/25 13:36:04;;;;;;;;;;;;;;;;;;5035142;28;19925;-74
2023/06/25 13:38:31;;;;;;;;;;;;;;;;;;5033265;28;20019;-74
2023/06/25 13:40:58;;;;;;;;;;;;;;;;;;5041188;28;20358;-74
2023/06/25 13:43:25;;;;;;;;;;;;;;;;;;5035472;28;19948;-74
2023/06/25 13:45:52;;;;;;;;;;;;;;;;;;5035132;28;19925;-74
2023/06/25 13:48:19;;;;;;;;;;;;;;;;;;5026608;28;19931;-74
2023/06/25 13:50:47;;;;;;;;;;;;;;;;;;5034568;28;19937;-74
2023/06/25 13:53:14;;;;;;;;;;;;;;;;;;5032338;28;20291;-74
2023/06/25 13:55:40;;;;;;;;;;;;;;;;;;5035050;28;19925;-74
2023/06/25 13:58:07;;;;;;;;;;;;;;;;;;5028677;28;19925;-75
2023/06/25 14:00:34;;;;;;;;;;;;;;;;;;5034619;28;20439;-75
2023/06/25 14:03:05;;;;;;;;;;;;;;;;;;5034696;28;20102;-74
2023/06/25 14:05:35;;;;;;;;;;;;;;;;;;5034904;28;19929;-74
2023/06/25 14:08:02;;;;;;;;;;;;;;;;;;5033622;28;20039;-75
2023/06/25 14:10:29;;;;;;;;;;;;;;;;;;5025361;28;20387;-74
2023/06/25 14:12:58;;;;;;;;;;;;;;;;;;5024152;28;19925;-74
2023/06/25 14:15:25;;;;;;;;;;;;;;;;;;5033283;28;20283;-74
2023/06/25 14:17:52;;;;;;;;;;;;;;;;;;5033527;28;20355;-74
2023/06/25 14:20:19;;;;;;;;;;;;;;;;;;5034384;28;20008;-74
2023/06/25 14:22:46;;;;;;;;;;;;;;;;;;5033154;28;19948;-74
2023/06/25 14:25:13;;;;;;;;;;;;;;;;;;5033839;28;19948;-75
2023/06/25 14:27:40;;;;;;;;;;;;;;;;;;5034465;28;20003;-73
2023/06/25 14:30:07;;;;;;;;;;;;;;;;;;5035332;28;20307;-74
2023/06/25 14:32:34;;;;;;;;;;;;;;;;;;5037167;28;20020;-74
2023/06/25 14:35:01;;;;;;;;;;;;;;;;;;5034775;28;20015;-75
2023/06/25 14:37:28;;;;;;;;;;;;;;;;;;5031142;28;19976;-74
2023/06/25 14:39:55;;;;;;;;;;;;;;;;;;5028883;28;20452;-75
2023/06/25 14:42:22;;;;;;;;;;;;;;;;;;5032906;28;20001;-75
2023/06/25 14:44:49;;;;;;;;;;;;;;;;;;5033232;28;19967;-74
2023/06/25 14:47:16;;;;;;;;;;;;;;;;;;5031442;28;19929;-74
2023/06/25 14:49:43;;;;;;;;;;;;;;;;;;5033054;28;20012;-75
2023/06/25 14:52:10;;;;;;;;;;;;;;;;;;5032813;28;19932;-75
2023/06/25 14:54:37;;;;;;;;;;;;;;;;;;5033810;28;19964;-75
2023/06/25 14:57:04;;;;;;;;;;;;;;;;;;5033692;28;20027;-74
2023/06/25 14:59:31;;;;;;;;;;;;;;;;;;5033856;28;20414;-74
2023/06/25 15:01:58;;;;;;;;;;;;;;;;;;5033243;28;20022;-74
2023/06/25 15:04:25;;;;;;;;;;;;;;;;;;5025316;28;19984;-74
2023/06/25 15:06:54;;;;;;;;;;;;;;;;;;5024070;28;20223;-74
2023/06/25 15:09:21;;;;;;;;;;;;;;;;;;5032629;28;20377;-74
2023/06/25 15:11:48;;;;;;;;;;;;;;;;;;5024828;28;19932;-74
2023/06/25 15:14:15;;;;;;;;;;;;;;;;;;5024508;28;19929;-74
2023/06/25 15:16:42;;;;;;;;;;;;;;;;;;5027408;28;20020;-74
2023/06/25 15:19:09;;;;;;;;;;;;;;;;;;5030001;28;19987;-74
2023/06/25 15:21:36;;;;;;;;;;;;;;;;;;5036283;28;20029;-75
2023/06/25 15:24:03;;;;;;;;;;;;;;;;;;5034499;28;20098;-74
2023/06/25 15:26:30;;;;;;;;;;;;;;;;;;5026322;28;19932;-74
2023/06/25 15:28:57;;;;;;;;;;;;;;;;;;5023672;28;20351;-75
2023/06/25 15:31:24;;;;;;;;;;;;;;;;;;5026028;28;20270;-74
2023/06/25 15:33:50;;;;;;;;;;;;;;;;;;5021657;28;20004;-74
2023/06/25 15:36:18;;;;;;;;;;;;;;;;;;5026652;28;19935;-74
2023/06/25 15:38:45;;;;;;;;;;;;;;;;;;5021510;28;19933;-74
2023/06/25 15:41:12;;;;;;;;;;;;;;;;;;5028745;28;19972;-71
2023/06/25 15:43:39;;;;;;;;;;;;;;;;;;5022090;28;19925;-71
2023/06/25 15:46:06;;;;;;;;;;;;;;;;;;5019565;28;19929;-72
2023/06/25 15:48:33;;;;;;;;;;;;;;;;;;5022039;28;20004;-73
2023/06/25 15:51:00;;;;;;;;;;;;;;;;;;5022375;28;20384;-72
2023/06/25 15:53:27;;;;;;;;;;;;;;;;;;5022786;28;19976;-72
2023/06/25 15:55:54;;;;;;;;;;;;;;;;;;5027214;28;20016;-72
2023/06/25 15:58:21;;;;;;;;;;;;;;;;;;5024003;28;19926;-73
2023/06/25 16:00:48;;;;;;;;;;;;;;;;;;5029285;28;19979;-72
2023/06/25 16:03:15;;;;;;;;;;;;;;;;;;5026580;28;19925;-72
2023/06/25 16:05:42;;;;;;;;;;;;;;;;;;5028504;28;19925;-71
2023/06/25 16:08:09;;;;;;;;;;;;;;;;;;5024352;28;20012;-72
2023/06/25 16:10:36;;;;;;;;;;;;;;;;;;5023446;28;19968;-73
2023/06/25 16:13:03;;;;;;;;;;;;;;;;;;5018245;28;20012;-72
2023/06/25 16:15:30;;;;;;;;;;;;;;;;;;5024105;28;19929;-72
2023/06/25 16:17:57;;;;;;;;;;;;;;;;;;5028965;28;19933;-71
2023/06/25 16:20:24;;;;;;;;;;;;;;;;;;5017698;28;20012;-71
2023/06/25 16:22:51;;;;;;;;;;;;;;;;;;5021873;28;19925;-71
2023/06/25 16:25:18;;;;;;;;;;;;;;;;;;5026479;28;20007;-72
2023/06/25 16:27:45;;;;;;;;;;;;;;;;;;5029807;28;20339;-71
2023/06/25 16:30:12;;;;;;;;;;;;;;;;;;5025073;28;19940;-71
2023/06/25 16:32:39;;;;;;;;;;;;;;;;;;5025852;28;19939;-71
2023/06/25 16:35:07;;;;;;;;;;;;;;;;;;5022511;28;20750;-71
2023/06/25 16:37:35;;;;;;;;;;;;;;;;;;5026790;28;20359;-72
2023/06/25 16:40:02;;;;;;;;;;;;;;;;;;5020704;28;19925;-72
2023/06/25 16:42:29;;;;;;;;;;;;;;;;;;5028029;28;19929;-73
2023/06/25 16:44:56;;;;;;;;;;;;;;;;;;5026249;28;20127;-71